Details From LEBL - Josep Tarradellas Barcelona-El Prat
To LFMP - Rivesaltes
Flight Number -
Tags generated
Created
Modified
Stats Distance 94 nm / 174 km
Max Altitude 400 ft / 122 m
Waypoints 3
Social Downloads 1
Likes 0
Share

Download

Looking for another format? Having issues loading an existing format? Contact us
Advertisement - Login to hide

Notes

Basic altitude profile: - Ascent Rate: 1000ft/min - Ascent Speed: 150kts - Cruise Altitude: 15000ft - Cruise Speed: 160kts - Descent Rate: 1000ft/min - Descent Speed: 160kts Options: - Use NATs: yes - Use PACOTS: yes - Use low airways: yes - Use high airways: yes

Route

LEBL BCN LFMP

ID Type Via Altitude (ft/m) Position (lat/lon) Dist (leg/tot) Name
O LEBL APT - 0 / 0 41.29510 / 2.08803 - / 0 nm Josep Tarradellas Barcelona-El Prat
BCN VOR - 400 / 122 41.30710 / 2.10781 1 / 1 nm BARCELONA
O LFMP APT - 0 / 0 42.74020 / 2.87079 92 / 93 nm Rivesaltes

Altitude Profile

Advertisement - Login to hide

LEBL

Details ICAO LEBL (BCN)
Name Josep Tarradellas Barcelona-El Prat
Region Spain
Timezone Europe/Madrid (UTC+2.0)
Stats Elevation 14 ft / 4 m (AMSL)
Location 41.295100° 2.088030°
Runways 3
Magnetic Variation 1.322° E

METAR

LEBL 271600Z 20010KT 9999 FEW030 23/17 Q1016 NOSIG

Decode

TAF

TAF LEBL 271100Z 2712/2812 19010KT CAVOK TX25/2712Z TN17/2806Z BECMG 2722/2802 VRB04KT TEMPO 2800/2808 33008KT BECMG 2808/2810 19010KT

Decode

Departure Runways

ID Width Length Bearing (true/mag) Surface Threshold Overrun Markings Lighting
02 148 ft / 45 m 8,307 ft / 2,532 m 18.91° / 17.59° ASPHALT 0 ft / 0 m 0 ft / 0 m PREC-APP CENTERLINE EDGE THRESHOLD ALSF-II REIL-OMNI
07L 197 ft / 60 m 10,984 ft / 3,348 m 65.48° / 64.16° ASPHALT 1,401 ft / 427 m 0 ft / 0 m PREC-APP CENTERLINE EDGE THRESHOLD ALSF-II TDZ REIL-OMNI
07R 197 ft / 60 m 8,722 ft / 2,658 m 65.48° / 64.16° ASPHALT 0 ft / 0 m 0 ft / 0 m PREC-APP CENTERLINE EDGE THRESHOLD ALSF-II TDZ REIL-OMNI
20 148 ft / 45 m 8,307 ft / 2,532 m 198.92° / 197.60° ASPHALT 0 ft / 0 m 226 ft / 69 m VISUAL CENTERLINE EDGE THRESHOLD REIL-OMNI
25L 197 ft / 60 m 8,722 ft / 2,658 m 245.50° / 244.18° ASPHALT 0 ft / 0 m 0 ft / 0 m PREC-APP CENTERLINE EDGE THRESHOLD ALSF-II TDZ REIL-OMNI
25R 197 ft / 60 m 10,984 ft / 3,348 m 245.50° / 244.18° ASPHALT 0 ft / 0 m 0 ft / 0 m PREC-APP CENTERLINE EDGE THRESHOLD ALSF-II TDZ REIL-OMNI

LFMP

Details ICAO LFMP (PGF)
Name Rivesaltes
Region France
Timezone Europe/Paris (UTC+2.0)
Stats Elevation 143 ft / 44 m (AMSL)
Location 42.740200° 2.870790°
Runways 2
Magnetic Variation 1.503° E

METAR

LFMP 271600Z AUTO 32016KT 290V350 CAVOK 27/11 Q1018 BECMG 31020G35KT

Decode

TAF

TAF LFMP 271400Z 2715/2815 31020G35KT CAVOK= TAF LFMT 271400Z 2715/2815 02010KT CAVOK BECMG 2807/2809 36017G27KT

Decode

Destination Runways

ID Width Length Bearing (true/mag) Surface Threshold Overrun Markings Lighting
13 66 ft / 20 m 3,635 ft / 1,108 m 129.20° / 127.69° ASPHALT 0 ft / 0 m 528 ft / 161 m APP EDGE THRESHOLD
15 148 ft / 45 m 8,296 ft / 2,529 m 148.79° / 147.29° ASPHALT 0 ft / 0 m 230 ft / 70 m PREC-APP EDGE THRESHOLD REIL-OMNI
31 66 ft / 20 m 3,635 ft / 1,108 m 309.21° / 307.70° ASPHALT 0 ft / 0 m 0 ft / 0 m APP EDGE THRESHOLD
33 148 ft / 45 m 8,296 ft / 2,529 m 328.80° / 327.30° ASPHALT 558 ft / 170 m 230 ft / 70 m PREC-APP EDGE THRESHOLD ALSF-I

Approach Navaids

Runway Type Ident Frequency Range Bearing (true/mag) Slope Elevation
33 OM OM - - 329.00° / 327.50 ° - 164 ft / 50 m (AMSL)
33 DME PL 111.75 MHz 18 nm / 33 km - - 183 ft / 56 m (AMSL)
33 LOC-ILS PL 111.75 MHz 18 nm / 33 km 328.30° / 326.79 ° - 124 ft / 38 m (AMSL)
33 GS PL 111.75 MHz 10 nm / 19 km 328.77° / 327.27 ° 3.00° 124 ft / 38 m (AMSL)

Popular Alternatives